createdAt,value
2023-02-12T00:00:57.417Z,96.22
2023-02-12T00:06:02.257Z,96.10
2023-02-12T00:11:15.220Z,95.49
2023-02-12T00:16:19.925Z,95.25
2023-02-12T00:21:22.860Z,95.58
2023-02-12T00:26:24.912Z,95.97
2023-02-12T00:31:28.995Z,95.80
2023-02-12T00:36:33.461Z,96.04
2023-02-12T00:41:35.061Z,96.34
2023-02-12T00:46:36.793Z,95.99
2023-02-12T00:51:38.370Z,95.65
2023-02-12T00:56:40.084Z,96.28
2023-02-12T01:01:41.688Z,96.83
2023-02-12T01:06:43.331Z,96.55
2023-02-12T01:11:45.023Z,96.45
2023-02-12T01:16:46.618Z,96.90
2023-02-12T01:21:48.255Z,96.17
2023-02-12T01:26:50.148Z,96.13
2023-02-12T01:31:52.367Z,96.85
2023-02-12T01:36:54.058Z,96.19
2023-02-12T01:41:55.727Z,96.08
2023-02-12T01:47:06.672Z,96.31
2023-02-12T01:52:09.868Z,95.96
2023-02-12T01:57:12.611Z,96.68
2023-02-12T02:02:14.579Z,96.71
2023-02-12T02:07:16.178Z,96.20
2023-02-12T02:12:36.692Z,96.19
2023-02-12T02:17:41.524Z,97.18
2023-02-12T02:22:52.145Z,96.67
2023-02-12T02:28:12.364Z,96.93
2023-02-12T02:33:21.013Z,97.47
2023-02-12T02:38:27.400Z,96.53
2023-02-12T02:43:35.470Z,95.74
2023-02-12T02:48:40.757Z,96.36
2023-02-12T02:53:56.962Z,97.10
2023-02-12T02:59:02.324Z,96.42
2023-02-12T03:04:05.873Z,97.17
2023-02-12T03:09:15.585Z,97.55
2023-02-12T03:14:29.965Z,97.74
2023-02-12T03:19:37.129Z,97.25
2023-02-12T03:24:46.889Z,96.78
2023-02-12T03:29:48.664Z,96.80
2023-02-12T03:34:50.218Z,96.84
2023-02-12T03:39:59.027Z,96.92
2023-02-12T03:45:09.446Z,97.09
2023-02-12T03:50:32.558Z,96.51
2023-02-12T03:55:37.236Z,96.36
2023-02-12T04:00:39.211Z,96.10
2023-02-12T04:05:40.781Z,96.77
2023-02-12T04:11:11.238Z,96.78
2023-02-12T04:16:29.950Z,97.31
2023-02-12T04:21:37.343Z,96.93
2023-02-12T04:26:54.193Z,96.95
2023-02-12T04:31:58.803Z,98.09
2023-02-12T04:37:07.952Z,97.17
2023-02-12T04:42:09.632Z,97.86
2023-02-12T04:47:15.570Z,98.22
2023-02-12T04:52:17.176Z,98.61
2023-02-12T04:57:18.761Z,98.21
2023-02-12T05:02:20.352Z,98.51
2023-02-12T05:07:21.917Z,98.51
2023-02-12T05:12:23.538Z,98.36
2023-02-12T05:17:25.218Z,98.13
2023-02-12T05:22:26.785Z,97.99
2023-02-12T05:27:28.413Z,97.95
2023-02-12T05:32:30.006Z,97.82
2023-02-12T05:37:34.895Z,98.73
2023-02-12T05:42:36.421Z,98.09
2023-02-12T05:47:37.983Z,98.31
2023-02-12T05:52:39.579Z,98.03
2023-02-12T05:57:41.174Z,98.83
2023-02-12T06:02:42.902Z,98.52
2023-02-12T06:07:44.555Z,98.53
2023-02-12T06:12:46.119Z,98.25
2023-02-12T06:17:47.676Z,98.77
2023-02-12T06:22:49.282Z,98.68
2023-02-12T06:27:50.834Z,98.47
2023-02-12T06:32:52.448Z,99.19
2023-02-12T06:37:54.051Z,98.69
2023-02-12T06:42:56.382Z,98.22
2023-02-12T06:47:57.939Z,98.07
2023-02-12T06:52:59.710Z,98.04
2023-02-12T06:58:01.309Z,98.28
2023-02-12T07:03:02.866Z,98.37
2023-02-12T07:08:04.458Z,98.16
2023-02-12T07:13:06.190Z,98.11
2023-02-12T07:18:07.742Z,98.10
2023-02-12T07:23:11.862Z,98.26
2023-02-12T07:28:13.450Z,98.08
2023-02-12T07:33:15.234Z,97.70
2023-02-12T07:38:16.835Z,97.60
2023-02-12T07:43:18.427Z,98.89
2023-02-12T07:48:19.989Z,97.59
2023-02-12T07:53:21.552Z,97.68
2023-02-12T07:58:23.103Z,96.85
2023-02-12T08:03:24.720Z,97.02
2023-02-12T08:08:26.277Z,97.65
2023-02-12T08:13:27.834Z,97.50
2023-02-12T08:18:31.444Z,97.80
2023-02-12T08:23:33.734Z,97.45
2023-02-12T08:28:36.594Z,99.85
2023-02-12T08:33:38.289Z,99.11
2023-02-12T08:38:40.386Z,98.76
2023-02-12T08:43:42.824Z,97.71
2023-02-12T08:48:44.955Z,97.19
2023-02-12T08:53:47.917Z,96.52
2023-02-12T08:58:49.729Z,96.52
2023-02-12T09:03:52.255Z,95.62
2023-02-12T09:08:54.587Z,96.40
2023-02-12T09:14:03.443Z,96.18
2023-02-12T09:19:05.090Z,95.61
2023-02-12T09:24:07.300Z,95.28
2023-02-12T09:29:08.965Z,94.70
2023-02-12T09:34:10.600Z,95.30
2023-02-12T09:39:12.148Z,95.40
2023-02-12T09:44:25.859Z,95.27
2023-02-12T09:49:49.447Z,93.90
2023-02-12T09:54:51.429Z,94.48
2023-02-12T09:59:58.446Z,93.89
2023-02-12T10:05:02.001Z,92.91
2023-02-12T10:10:43.076Z,92.80
2023-02-12T10:15:47.902Z,92.72
2023-02-12T10:20:58.580Z,93.29
2023-02-12T10:26:09.367Z,93.04
2023-02-12T10:31:27.393Z,92.81
2023-02-12T10:36:41.777Z,92.13
2023-02-12T10:42:04.148Z,92.04
2023-02-12T10:47:06.237Z,91.61
2023-02-12T10:52:26.592Z,92.37
2023-02-12T10:57:30.692Z,91.61
2023-02-12T11:02:33.975Z,91.31
2023-02-12T11:07:47.688Z,90.99
2023-02-12T11:12:50.375Z,91.24
2023-02-12T11:18:04.517Z,89.50
2023-02-12T11:23:33.579Z,88.32
2023-02-12T11:28:36.761Z,88.95
2023-02-12T11:33:39.055Z,90.10
2023-02-12T11:38:58.951Z,89.03
2023-02-12T11:44:01.193Z,88.10
2023-02-12T11:49:02.820Z,86.89
2023-02-12T11:54:06.281Z,86.43
2023-02-12T11:59:17.953Z,86.24
2023-02-12T12:04:20.550Z,87.03
2023-02-12T12:09:30.176Z,86.29
2023-02-12T12:15:19.711Z,86.24
2023-02-12T12:20:25.282Z,86.43
2023-02-12T12:25:28.151Z,86.43
2023-02-12T12:30:48.171Z,86.15
2023-02-12T12:35:49.928Z,86.56
2023-02-12T12:41:13.305Z,86.57
2023-02-12T12:46:21.102Z,87.79
2023-02-12T12:51:48.907Z,87.68
2023-02-12T12:57:01.311Z,88.00
2023-02-12T13:02:19.084Z,87.68
2023-02-12T13:07:45.077Z,87.44
2023-02-12T13:12:59.885Z,87.25
2023-02-12T13:18:11.869Z,89.42
2023-02-12T13:23:28.009Z,89.58
2023-02-12T13:28:35.081Z,90.37
2023-02-12T13:33:43.513Z,90.92
2023-02-12T13:38:50.881Z,91.38
2023-02-12T13:44:05.002Z,91.18
2023-02-12T13:49:30.667Z,91.39
2023-02-12T13:54:57.454Z,90.22
2023-02-12T13:59:59.967Z,89.81
2023-02-12T14:05:03.570Z,89.86
2023-02-12T14:10:06.654Z,90.07
2023-02-12T14:15:17.028Z,89.84
2023-02-12T14:20:33.152Z,91.03
2023-02-12T14:25:49.493Z,90.87
2023-02-12T14:31:19.022Z,91.01
2023-02-12T14:36:32.969Z,91.29
2023-02-12T14:41:39.793Z,91.29
2023-02-12T14:46:55.450Z,91.88
2023-02-12T14:52:06.570Z,91.65
2023-02-12T14:57:12.629Z,92.25
2023-02-12T15:02:21.670Z,92.21
2023-02-12T15:07:29.918Z,93.15
2023-02-12T15:12:57.853Z,92.49
2023-02-12T15:18:16.338Z,93.50
2023-02-12T15:23:38.994Z,94.27
2023-02-12T15:28:40.976Z,94.88
2023-02-12T15:33:46.600Z,95.63
2023-02-12T15:38:50.720Z,97.07
2023-02-12T15:43:52.321Z,96.92
2023-02-12T15:48:55.618Z,96.77
2023-02-12T15:53:58.745Z,97.39
2023-02-12T15:59:01.660Z,97.38
2023-02-12T16:04:06.053Z,97.04
2023-02-12T16:09:12.967Z,98.00
2023-02-12T16:14:31.423Z,98.69
2023-02-12T16:19:33.637Z,98.47
2023-02-12T16:24:38.322Z,98.48
2023-02-12T16:29:45.049Z,97.91
2023-02-12T16:34:46.643Z,99.40
2023-02-12T16:39:53.972Z,98.05
2023-02-12T16:44:56.083Z,97.50
2023-02-12T16:50:00.216Z,97.73
2023-02-12T16:55:01.887Z,97.01
2023-02-12T17:00:08.295Z,96.58
2023-02-12T17:05:10.935Z,96.19
2023-02-12T17:10:16.754Z,96.35
2023-02-12T17:15:25.147Z,96.57
2023-02-12T17:20:26.691Z,95.90
2023-02-12T17:25:30.151Z,96.30
2023-02-12T17:30:32.403Z,97.44
2023-02-12T17:35:33.991Z,97.74
2023-02-12T17:40:36.612Z,95.83
2023-02-12T17:45:43.032Z,96.93
2023-02-12T17:50:44.659Z,96.39
2023-02-12T17:55:46.451Z,96.62
2023-02-12T18:00:48.150Z,97.88
2023-02-12T18:05:49.754Z,96.34
2023-02-12T18:10:51.355Z,96.24
2023-02-12T18:15:52.907Z,96.03
2023-02-12T18:20:54.773Z,95.74
2023-02-12T18:25:56.671Z,96.77
2023-02-12T18:30:58.911Z,96.15
2023-02-12T18:36:01.938Z,96.00
2023-02-12T18:41:11.781Z,96.18
2023-02-12T18:46:16.686Z,96.18
2023-02-12T18:51:24.348Z,96.75
2023-02-12T18:56:25.903Z,97.29
2023-02-12T19:01:28.546Z,97.63
2023-02-12T19:06:31.678Z,97.99
2023-02-12T19:11:33.543Z,97.31
2023-02-12T19:16:35.194Z,97.48
2023-02-12T19:21:39.540Z,97.23
2023-02-12T19:26:41.720Z,97.56
2023-02-12T19:31:45.156Z,96.82
2023-02-12T19:36:48.080Z,96.32
2023-02-12T19:41:49.930Z,98.11
2023-02-12T19:46:51.988Z,97.75
2023-02-12T19:51:53.774Z,98.19
2023-02-12T19:56:55.546Z,98.71
2023-02-12T20:01:57.218Z,98.32
2023-02-12T20:06:58.844Z,97.82
2023-02-12T20:12:00.497Z,98.55
2023-02-12T20:17:02.134Z,98.02
2023-02-12T20:22:04.580Z,97.65
2023-02-12T20:27:06.214Z,99.42
2023-02-12T20:32:07.832Z,98.58
2023-02-12T20:37:09.501Z,98.86
2023-02-12T20:42:12.228Z,99.25
2023-02-12T20:47:13.818Z,99.21
2023-02-12T20:52:15.427Z,98.25
2023-02-12T20:57:17.603Z,98.54
2023-02-12T21:02:19.291Z,98.10
2023-02-12T21:07:20.925Z,99.04
2023-02-12T21:12:22.599Z,98.95
2023-02-12T21:17:24.641Z,99.09
2023-02-12T21:22:26.268Z,98.84
2023-02-12T21:27:27.968Z,98.77
2023-02-12T21:32:29.669Z,98.65
2023-02-12T21:37:31.383Z,99.32
2023-02-12T21:42:33.012Z,100.00
2023-02-12T21:47:34.896Z,99.71
2023-02-12T21:52:36.451Z,99.53
2023-02-12T21:57:37.989Z,100.00
2023-02-12T22:02:39.687Z,98.61
2023-02-12T22:07:41.325Z,99.15
2023-02-12T22:12:42.939Z,99.92
2023-02-12T22:17:44.538Z,98.47
2023-02-12T22:22:46.158Z,97.99
2023-02-12T22:27:47.706Z,98.47
2023-02-12T22:32:49.394Z,98.70
2023-02-12T22:37:50.993Z,99.06
2023-02-12T22:42:52.594Z,99.16
2023-02-12T22:47:54.189Z,97.52
2023-02-12T22:52:55.803Z,97.34
2023-02-12T22:57:58.330Z,97.69
2023-02-12T23:02:59.970Z,97.46
2023-02-12T23:08:01.651Z,97.96
2023-02-12T23:13:03.267Z,98.64
2023-02-12T23:18:04.877Z,98.98
2023-02-12T23:23:06.548Z,100.00
2023-02-12T23:28:08.250Z,100.00
2023-02-12T23:33:09.891Z,100.00
2023-02-12T23:38:11.932Z,99.97
2023-02-12T23:43:13.666Z,100.00
2023-02-12T23:48:15.247Z,99.38
2023-02-12T23:53:18.929Z,98.96
2023-02-12T23:58:20.518Z,99.25
